Saturday, March 28, 2015
17:45 UTC
  |  Log In   |  Register Free
Airport Search:

Norwood Memorial Airport
(KOWD)

FAA data valid effective March 05, 2015 - April 30, 2015 (unless otherwise noted).

 
 
 
 
 
 
 
 
 
 
 
 
 
 

Current Aviation Weather for Norwood Memorial Airport (KOWD)

The most recent METAR observation for KOWD was updated at: 1412
METAR Summary (Translated METAR)
KOWD
251353Z 00000KT 10SM CLR 04/M11 A3041 RMK AO2 SLP298 T00391106
KBOS
251354Z 14003KT 10SM FEW250 02/M06 A3041 RMK AO2 SLP298 T00221061
(12.7 nm NE from KOWD)
KBED
251356Z 00000KT 10SM CLR 03/M09 A3040 RMK AO2 SLP309 T00281089
(17.6 nm NW from KOWD)
TAF Summary (Translated TAF)
KBOS
(12.7 nm NE from KOWD)
251311Z 2513/2618 VRB03KT P6SM FEW250 FM251600 11006KT P6SM FEW250 FM252000 15008KT P6SM SCT250 FM252300 19009KT P6SM BKN150 FM260200 20009KT 5SM -RA BKN008 OVC050 FM260400 20008KT 3SM BR OVC008 FM261600 21009KT 3SM -RA BR OVC050
KBED
(17.6 nm NW from KOWD)
251120Z 2512/2612 00000KT P6SM SKC FM251900 17006KT P6SM SCT250 FM260000 20007KT P6SM -RA OVC050 FM260100 20007KT 5SM -RA OVC050 FM260300 20007KT 3SM -RA OVC008 FM260400 20006KT P6SM OVC008
  Airport Weather Conditions for KOWD

 Current Weather at OWD
33° F
Light Snow Fog/Mist
North winds at 6.9 mph
OWD NOAA Radar

Pressure: 29.76 in
Humidity: 92%
Wind: North at 6.9 MPH (6 KT)
Dew Point: 30.9°F
Visibility: 1.00 mi


Airport Weather Forecast for KOWD

Translated METAR and TAF for KOWD
Translated METAR for KOWD (1744 UTC 28 March 2015)
found at http://aviationweather.gov/adds/metars/
 
METAR text: KOWD 281729Z 34005KT 3/4SM -SN BR BKN007 BKN012 OVC018 01/M01 A2976 RMK AO2 P0000 T00061006
Conditions at: KOWD (NORWOOD , MA, US) observed 1729 UTC 28 March 2015
Temperature: 0.6°C (33°F)
Dewpoint: -0.6°C (31°F) [RH = 92%]
Pressure (altimeter): 29.76 inches Hg (1007.9 mb)
Winds: from the NNW (340 degrees) at 6 MPH (5 knots; 2.6 m/s)
Visibility: 0.75 miles (1.21 km)
Ceiling: 700 feet AGL
Clouds: broken clouds at 700 feet AGL
broken clouds at 1200 feet AGL
overcast cloud deck at 1800 feet AGL
Weather: -SN BR  (light snow, mist)
Translated TAF for KOWD

There is no translated TAF available for this airport

Find All Airport Services Find A Hotel Find A Rental Car Find A Golf Course Find A Restaurant $100 Hamburger



FBO's on the Field
FBO Company Facility Photos Services Transportation Aviation Fuel Prices: Prices include tax
Catering Weather Repair Courtesy Rental Type 100LL JetA JetA+ MOGAS 8087
 
FlightLevel Aviation

Currently rated 2.7 by 2 people
FS:Shell
Last Updated: Mar-26
Login to update fuel prices
SS:
Contact FlightLevel AviationMore FBO Information
 
Add another FBO Facility Photos Catering Weather Repair Courtesy Rental Type 100LL JetA JetA+ MOGAS 8087
Services Transportation Aviation Fuel Prices: Prices include tax


model-print
model-print
model-print
model-print